createdAt,value
2023-02-13T00:00:12.869Z,1.80
2023-02-13T00:02:15.640Z,1.70
2023-02-13T00:04:18.513Z,1.70
2023-02-13T00:06:20.220Z,1.70
2023-02-13T00:08:21.895Z,1.60
2023-02-13T00:10:23.789Z,1.70
2023-02-13T00:12:25.493Z,1.60
2023-02-13T00:14:27.164Z,1.70
2023-02-13T00:16:28.809Z,1.60
2023-02-13T00:18:33.509Z,1.70
2023-02-13T00:20:35.128Z,1.70
2023-02-13T00:25:52.389Z,1.60
2023-02-13T00:27:54.190Z,1.60
2023-02-13T00:29:55.897Z,1.50
2023-02-13T00:31:57.642Z,1.50
2023-02-13T00:33:59.384Z,1.50
2023-02-13T00:36:05.283Z,1.60
2023-02-13T00:38:06.905Z,1.60
2023-02-13T00:40:08.925Z,1.50
2023-02-13T00:42:10.692Z,1.40
2023-02-13T00:44:12.458Z,1.40
2023-02-13T00:46:14.330Z,1.40
2023-02-13T00:48:16.119Z,1.40
2023-02-13T00:50:17.869Z,1.40
2023-02-13T00:52:19.640Z,1.40
2023-02-13T00:54:21.343Z,1.40
2023-02-13T00:56:23.032Z,1.40
2023-02-13T00:58:25.023Z,1.40
2023-02-13T01:00:26.732Z,1.30
2023-02-13T01:02:28.405Z,1.40
2023-02-13T01:04:30.114Z,1.40
2023-02-13T01:06:31.824Z,1.40
2023-02-13T01:08:33.687Z,1.40
2023-02-13T01:10:37.073Z,1.40
2023-02-13T01:12:38.756Z,1.40
2023-02-13T01:14:40.618Z,1.40
2023-02-13T01:16:42.275Z,1.40
2023-02-13T01:18:44.402Z,1.40
2023-02-13T01:20:55.530Z,1.40
2023-02-13T01:22:57.586Z,1.40
2023-02-13T01:24:59.298Z,1.30
2023-02-13T01:27:02.481Z,1.30
2023-02-13T01:29:04.155Z,1.30
2023-02-13T01:31:05.846Z,1.30
2023-02-13T01:33:07.479Z,1.20
2023-02-13T01:35:09.911Z,1.20
2023-02-13T01:37:11.568Z,1.10
2023-02-13T01:39:13.228Z,1.20
2023-02-13T01:41:15.570Z,1.20
2023-02-13T01:43:17.752Z,1.10
2023-02-13T01:45:22.637Z,1.20
2023-02-13T01:47:24.260Z,1.20
2023-02-13T01:49:25.904Z,1.20
2023-02-13T01:51:29.316Z,1.10
2023-02-13T01:53:37.078Z,1.20
2023-02-13T01:56:14.409Z,1.30
2023-02-13T01:58:18.742Z,1.30
2023-02-13T02:00:20.630Z,1.20
2023-02-13T02:02:22.589Z,1.20
2023-02-13T02:04:30.207Z,1.20
2023-02-13T02:06:34.521Z,1.10
2023-02-13T02:08:36.518Z,1.20
2023-02-13T02:10:38.713Z,1.20
2023-02-13T02:12:52.510Z,1.10
2023-02-13T02:14:55.427Z,1.10
2023-02-13T02:16:57.060Z,1.10
2023-02-13T02:18:59.198Z,1.00
2023-02-13T02:21:09.788Z,1.00
2023-02-13T02:23:20.498Z,1.00
2023-02-13T02:25:34.403Z,1.00
2023-02-13T02:27:45.111Z,1.00
2023-02-13T02:29:53.656Z,0.90
2023-02-13T02:32:01.238Z,0.90
2023-02-13T02:34:24.423Z,0.80
2023-02-13T02:36:48.747Z,0.90
2023-02-13T02:38:53.129Z,0.90
2023-02-13T02:41:07.003Z,0.90
2023-02-13T02:43:19.058Z,0.90
2023-02-13T02:45:28.335Z,0.80
2023-02-13T02:47:54.699Z,0.80
2023-02-13T02:50:09.269Z,0.80
2023-02-13T02:52:18.846Z,0.70
2023-02-13T02:54:45.116Z,0.70
2023-02-13T02:56:47.641Z,0.70
2023-02-13T02:59:10.528Z,0.80
2023-02-13T03:01:33.568Z,0.70
2023-02-13T03:03:54.283Z,0.70
2023-02-13T03:06:11.430Z,0.70
2023-02-13T03:08:13.277Z,0.70
2023-02-13T03:10:40.311Z,0.60
2023-02-13T03:13:08.000Z,0.60
2023-02-13T03:15:10.079Z,0.60
2023-02-13T03:17:31.235Z,0.60
2023-02-13T03:19:54.528Z,0.50
2023-02-13T03:22:25.789Z,0.50
2023-02-13T03:24:46.050Z,0.50
2023-02-13T03:26:53.261Z,0.50
2023-02-13T03:29:20.445Z,0.40
2023-02-13T03:31:42.408Z,0.40
2023-02-13T03:33:47.142Z,0.40
2023-02-13T03:36:10.426Z,0.40
2023-02-13T03:38:18.182Z,0.30
2023-02-13T03:40:33.544Z,0.30
2023-02-13T03:42:52.036Z,0.30
2023-02-13T03:45:15.489Z,0.30
2023-02-13T03:47:17.163Z,0.30
2023-02-13T03:49:41.398Z,0.30
2023-02-13T03:51:45.558Z,0.30
2023-02-13T03:53:50.448Z,0.30
2023-02-13T03:56:11.688Z,0.20
2023-02-13T03:58:37.802Z,0.20
2023-02-13T04:00:41.286Z,0.20
2023-02-13T04:03:00.122Z,0.20
2023-02-13T04:05:08.469Z,0.10
2023-02-13T04:07:12.176Z,0.20
2023-02-13T04:09:14.042Z,0.20
2023-02-13T04:11:21.560Z,0.20
2023-02-13T04:13:38.880Z,0.20
2023-02-13T04:15:56.204Z,0.10
2023-02-13T04:18:18.397Z,0.10
2023-02-13T04:20:20.099Z,0.10
2023-02-13T04:22:21.716Z,0.00
2023-02-13T04:24:23.579Z,0.10
2023-02-13T04:26:25.993Z,0.10
2023-02-13T04:28:27.702Z,0.10
2023-02-13T04:30:29.350Z,0.00
2023-02-13T04:32:30.987Z,0.00
2023-02-13T04:34:32.647Z,-0.10
2023-02-13T04:36:34.197Z,-0.10
2023-02-13T04:38:35.769Z,0.00
2023-02-13T04:40:37.397Z,-0.10
2023-02-13T04:42:39.106Z,-0.10
2023-02-13T04:44:40.691Z,-0.10
2023-02-13T04:46:42.296Z,-0.20
2023-02-13T04:48:44.039Z,-0.20
2023-02-13T04:50:45.754Z,-0.10
2023-02-13T04:52:47.604Z,-0.10
2023-02-13T04:54:49.297Z,-0.20
2023-02-13T04:56:50.934Z,-0.10
2023-02-13T04:58:52.668Z,-0.20
2023-02-13T05:00:54.264Z,-0.20
2023-02-13T05:03:00.769Z,-0.20
2023-02-13T05:05:02.482Z,-0.30
2023-02-13T05:07:04.154Z,-0.30
2023-02-13T05:09:05.793Z,-0.30
2023-02-13T05:11:07.535Z,-0.30
2023-02-13T05:13:09.166Z,-0.40
2023-02-13T05:15:10.871Z,-0.40
2023-02-13T05:17:12.471Z,-0.30
2023-02-13T05:19:14.057Z,-0.40
2023-02-13T05:21:34.186Z,-0.40
2023-02-13T05:23:36.178Z,-0.40
2023-02-13T05:25:38.903Z,-0.40
2023-02-13T05:27:40.485Z,-0.40
2023-02-13T05:29:42.063Z,-0.30
2023-02-13T05:31:43.741Z,-0.40
2023-02-13T05:33:45.356Z,-0.40
2023-02-13T05:35:47.001Z,-0.40
2023-02-13T05:37:48.603Z,-0.40
2023-02-13T05:39:50.273Z,-0.40
2023-02-13T05:41:51.860Z,-0.40
2023-02-13T05:43:53.414Z,-0.40
2023-02-13T05:46:01.852Z,-0.50
2023-02-13T05:48:03.541Z,-0.40
2023-02-13T05:50:05.476Z,-0.40
2023-02-13T05:52:07.140Z,-0.50
2023-02-13T05:54:08.855Z,-0.50
2023-02-13T05:56:10.543Z,-0.50
2023-02-13T05:58:12.202Z,-0.50
2023-02-13T06:00:14.186Z,-0.50
2023-02-13T06:02:15.813Z,-0.50
2023-02-13T06:04:17.452Z,-0.50
2023-02-13T06:06:19.668Z,-0.60
2023-02-13T06:08:21.971Z,-0.50
2023-02-13T06:10:23.625Z,-0.50
2023-02-13T06:12:27.345Z,-0.60
2023-02-13T06:14:29.023Z,-0.60
2023-02-13T06:16:31.166Z,-0.60
2023-02-13T06:18:32.793Z,-0.60
2023-02-13T06:20:34.587Z,-0.60
2023-02-13T06:22:36.175Z,-0.60
2023-02-13T06:24:37.797Z,-0.70
2023-02-13T06:26:39.503Z,-0.60
2023-02-13T06:28:41.275Z,-0.60
2023-02-13T06:30:42.918Z,-0.70
2023-02-13T06:32:46.392Z,-0.70
2023-02-13T06:34:47.963Z,-0.60
2023-02-13T06:36:49.586Z,-0.60
2023-02-13T06:38:51.284Z,-0.60
2023-02-13T06:40:53.133Z,-0.60
2023-02-13T06:42:54.862Z,-0.50
2023-02-13T06:44:56.465Z,-0.50
2023-02-13T06:46:58.224Z,-0.50
2023-02-13T06:48:59.797Z,-0.40
2023-02-13T06:51:04.260Z,-0.50
2023-02-13T06:53:05.850Z,-0.40
2023-02-13T06:55:07.624Z,-0.40
2023-02-13T06:57:09.330Z,-0.30
2023-02-13T06:59:11.011Z,-0.20
2023-02-13T07:01:12.664Z,-0.20
2023-02-13T07:03:14.482Z,-0.30
2023-02-13T07:05:16.184Z,-0.30
2023-02-13T07:07:17.815Z,-0.30
2023-02-13T07:09:19.475Z,-0.30
2023-02-13T07:11:22.242Z,-0.30
2023-02-13T07:13:24.019Z,-0.30
2023-02-13T07:15:25.693Z,-0.20
2023-02-13T07:17:27.411Z,-0.20
2023-02-13T07:19:37.992Z,-0.20
2023-02-13T07:21:39.666Z,-0.30
2023-02-13T07:23:41.326Z,-0.30
2023-02-13T07:25:42.905Z,-0.20
2023-02-13T07:27:44.645Z,-0.10
2023-02-13T07:29:46.296Z,0.10
2023-02-13T07:31:47.945Z,0.00
2023-02-13T07:33:49.813Z,0.00
2023-02-13T07:35:52.353Z,0.00
2023-02-13T07:37:55.066Z,0.10
2023-02-13T07:39:56.732Z,0.20
2023-02-13T07:41:58.371Z,0.10
2023-02-13T07:44:00.043Z,0.20
2023-02-13T07:46:02.397Z,0.20
2023-02-13T07:48:04.021Z,0.20
2023-02-13T07:50:06.033Z,0.20
2023-02-13T07:52:07.671Z,0.40
2023-02-13T07:54:09.253Z,0.50
2023-02-13T07:56:11.499Z,0.50
2023-02-13T07:58:13.138Z,0.40
2023-02-13T08:00:15.044Z,0.50
2023-02-13T08:02:16.748Z,0.60
2023-02-13T08:04:18.450Z,0.60
2023-02-13T08:06:20.408Z,0.60
2023-02-13T08:08:22.029Z,0.60
2023-02-13T08:10:42.603Z,0.70
2023-02-13T08:12:44.482Z,0.70
2023-02-13T08:14:46.165Z,0.80
2023-02-13T08:16:47.871Z,0.80
2023-02-13T08:18:49.580Z,0.80
2023-02-13T08:20:51.138Z,0.90
2023-02-13T08:22:52.786Z,0.90
2023-02-13T08:24:54.405Z,0.80
2023-02-13T08:26:56.216Z,0.90
2023-02-13T08:28:57.999Z,0.90
2023-02-13T08:30:59.759Z,1.00
2023-02-13T08:33:01.643Z,1.00
2023-02-13T08:35:03.317Z,1.10
2023-02-13T08:37:05.201Z,1.10
2023-02-13T08:39:06.948Z,1.20
2023-02-13T08:41:10.210Z,1.40
2023-02-13T08:43:11.926Z,1.40
2023-02-13T08:45:13.654Z,1.50
2023-02-13T08:47:15.304Z,1.60
2023-02-13T08:49:20.199Z,1.60
2023-02-13T08:51:21.872Z,1.70
2023-02-13T08:53:23.528Z,1.70
2023-02-13T08:55:25.463Z,1.80
2023-02-13T08:57:27.222Z,1.80
2023-02-13T08:59:28.814Z,2.00
2023-02-13T09:01:30.520Z,2.00
2023-02-13T09:03:32.260Z,2.10
2023-02-13T09:05:33.876Z,2.20
2023-02-13T09:07:35.549Z,2.30
2023-02-13T09:09:37.254Z,2.40
2023-02-13T09:11:39.040Z,2.60
2023-02-13T09:13:40.768Z,2.70
2023-02-13T09:15:42.995Z,2.80
2023-02-13T09:17:44.646Z,2.90
2023-02-13T09:19:47.214Z,2.90
2023-02-13T09:21:48.946Z,3.00
2023-02-13T09:23:55.197Z,3.20
2023-02-13T09:25:58.956Z,3.40
2023-02-13T09:28:00.794Z,3.50
2023-02-13T09:30:02.662Z,3.50
2023-02-13T09:32:05.036Z,3.60
2023-02-13T09:34:06.812Z,3.80
2023-02-13T09:36:09.687Z,3.80
2023-02-13T09:38:11.821Z,3.90
2023-02-13T09:40:33.725Z,3.90
2023-02-13T09:42:37.015Z,4.00
2023-02-13T09:44:43.271Z,4.20
2023-02-13T09:46:45.187Z,4.30
2023-02-13T09:48:56.722Z,4.40
2023-02-13T09:50:59.193Z,4.50
2023-02-13T09:53:01.315Z,4.40
2023-02-13T09:55:06.965Z,4.40
2023-02-13T09:57:14.773Z,4.50
2023-02-13T09:59:48.807Z,4.80
2023-02-13T10:01:53.536Z,4.90
2023-02-13T10:03:55.153Z,5.10
2023-02-13T10:06:04.650Z,5.30
2023-02-13T10:08:25.665Z,5.40
2023-02-13T10:10:30.338Z,5.50
2023-02-13T10:12:35.089Z,5.60
2023-02-13T10:14:41.749Z,5.70
2023-02-13T10:16:45.474Z,5.80
2023-02-13T10:18:59.690Z,5.80
2023-02-13T10:21:02.708Z,5.90
2023-02-13T10:23:24.923Z,6.20
2023-02-13T10:25:28.405Z,6.30
2023-02-13T10:27:35.225Z,6.50
2023-02-13T10:29:57.551Z,6.50
2023-02-13T10:32:02.883Z,6.30
2023-02-13T10:34:05.932Z,6.40
2023-02-13T10:36:15.943Z,6.50
2023-02-13T10:38:20.258Z,6.60
2023-02-13T10:40:24.298Z,6.60
2023-02-13T10:42:31.764Z,6.80
2023-02-13T10:44:33.393Z,6.70
2023-02-13T10:47:07.101Z,6.50
2023-02-13T10:49:20.548Z,6.70
2023-02-13T10:51:45.153Z,7.20
2023-02-13T10:53:52.604Z,7.40
2023-02-13T10:56:09.552Z,7.70
2023-02-13T10:58:11.212Z,7.60
2023-02-13T11:00:12.854Z,7.90
2023-02-13T11:02:28.416Z,7.90
2023-02-13T11:04:30.542Z,7.90
2023-02-13T11:06:33.292Z,8.20
2023-02-13T11:08:43.308Z,8.40
2023-02-13T11:10:44.934Z,8.30
2023-02-13T11:12:46.894Z,8.50
2023-02-13T11:15:02.492Z,8.60
2023-02-13T11:17:09.726Z,8.70
2023-02-13T11:19:22.519Z,8.90
2023-02-13T11:21:34.392Z,9.00
2023-02-13T11:23:46.269Z,9.30
2023-02-13T11:26:04.637Z,8.70
2023-02-13T11:28:16.259Z,8.90
2023-02-13T11:30:23.978Z,9.20
2023-02-13T11:32:27.479Z,9.50
2023-02-13T11:34:30.539Z,9.60
2023-02-13T11:36:33.488Z,9.70
2023-02-13T11:38:35.442Z,9.90
2023-02-13T11:40:37.701Z,10.00
2023-02-13T11:42:42.507Z,10.20
2023-02-13T11:44:48.428Z,10.00
2023-02-13T11:46:51.712Z,9.90
2023-02-13T11:48:56.676Z,9.60
2023-02-13T11:50:58.486Z,9.60
2023-02-13T11:53:03.315Z,8.80
2023-02-13T11:55:24.227Z,9.30
2023-02-13T11:57:29.787Z,10.00
2023-02-13T11:59:33.682Z,10.20
2023-02-13T12:01:35.388Z,10.50
2023-02-13T12:03:38.823Z,10.40
2023-02-13T12:05:40.524Z,10.10
2023-02-13T12:07:42.840Z,10.80
2023-02-13T12:09:46.304Z,11.20
2023-02-13T12:11:55.148Z,11.50
2023-02-13T12:13:58.079Z,11.10
2023-02-13T12:16:02.452Z,11.10
2023-02-13T12:18:10.435Z,11.20
2023-02-13T12:20:14.559Z,11.50
2023-02-13T12:22:27.875Z,11.50
2023-02-13T12:24:51.047Z,11.00
2023-02-13T12:26:59.853Z,11.30
2023-02-13T12:29:01.491Z,11.90
2023-02-13T12:31:03.427Z,12.10
2023-02-13T12:33:11.059Z,12.50
2023-02-13T12:35:39.087Z,12.50
2023-02-13T12:38:04.163Z,12.40
2023-02-13T12:40:25.528Z,12.80
2023-02-13T12:42:39.573Z,12.60
2023-02-13T12:44:59.739Z,13.10
2023-02-13T12:47:04.471Z,13.30
2023-02-13T12:49:25.110Z,13.30
2023-02-13T12:51:38.686Z,13.20
2023-02-13T12:53:58.704Z,12.60
2023-02-13T12:56:00.245Z,13.10
2023-02-13T12:58:16.213Z,13.00
2023-02-13T13:00:18.472Z,15.20
2023-02-13T13:02:29.390Z,17.10
2023-02-13T13:04:31.121Z,18.10
2023-02-13T13:06:38.495Z,18.60
2023-02-13T13:08:49.165Z,18.60
2023-02-13T13:11:03.104Z,18.70
2023-02-13T13:13:37.226Z,19.00
2023-02-13T13:15:57.415Z,19.10
2023-02-13T13:18:14.400Z,19.10
2023-02-13T13:20:37.588Z,18.60
2023-02-13T13:22:45.180Z,19.00
2023-02-13T13:24:55.487Z,19.20
2023-02-13T13:26:57.965Z,19.20
2023-02-13T13:29:00.028Z,18.90
2023-02-13T13:31:02.952Z,18.60
2023-02-13T13:33:10.773Z,17.90
2023-02-13T13:35:14.230Z,17.80
2023-02-13T13:37:21.684Z,17.60
2023-02-13T13:39:35.525Z,17.70
2023-02-13T13:41:55.855Z,17.80
2023-02-13T13:44:17.998Z,17.40
2023-02-13T13:46:22.790Z,16.90
2023-02-13T13:48:27.350Z,16.90
2023-02-13T13:50:31.203Z,16.90
2023-02-13T13:52:34.247Z,16.40
2023-02-13T13:54:36.002Z,16.70
2023-02-13T13:56:53.004Z,17.10
2023-02-13T13:58:56.701Z,16.40
2023-02-13T14:01:10.261Z,15.80
2023-02-13T14:03:23.113Z,15.50
2023-02-13T14:05:32.111Z,15.50
2023-02-13T14:07:35.634Z,15.30
2023-02-13T14:09:39.441Z,15.60
2023-02-13T14:11:45.733Z,15.20
2023-02-13T14:13:50.322Z,15.00
2023-02-13T14:15:52.630Z,15.60
2023-02-13T14:17:54.565Z,16.00
2023-02-13T14:19:58.398Z,15.80
2023-02-13T14:22:35.682Z,15.60
2023-02-13T14:24:37.364Z,16.00
2023-02-13T14:26:40.474Z,16.60
2023-02-13T14:29:02.350Z,16.10
2023-02-13T14:31:05.899Z,15.80
2023-02-13T14:33:09.270Z,15.30
2023-02-13T14:35:17.005Z,14.80
2023-02-13T14:37:21.476Z,14.50
2023-02-13T14:39:31.306Z,14.60
2023-02-13T14:41:43.113Z,14.70
2023-02-13T14:43:51.462Z,15.10
2023-02-13T14:46:04.046Z,14.80
2023-02-13T14:48:06.760Z,14.80
2023-02-13T14:50:14.845Z,15.10
2023-02-13T14:52:26.469Z,15.30
2023-02-13T14:54:38.763Z,15.00
2023-02-13T14:56:44.931Z,15.10
2023-02-13T14:59:01.043Z,14.70
2023-02-13T15:01:04.768Z,14.60
2023-02-13T15:03:25.136Z,14.20
2023-02-13T15:05:31.096Z,13.90
2023-02-13T15:07:37.471Z,14.30
2023-02-13T15:09:40.623Z,14.50
2023-02-13T15:11:43.221Z,14.50
2023-02-13T15:13:45.095Z,14.00
2023-02-13T15:15:51.785Z,13.90
2023-02-13T15:17:56.736Z,13.80
2023-02-13T15:20:05.026Z,13.80
2023-02-13T15:22:06.970Z,13.40
2023-02-13T15:24:12.906Z,12.90
2023-02-13T15:26:20.339Z,12.60
2023-02-13T15:28:23.763Z,12.50
2023-02-13T15:30:25.530Z,12.50
2023-02-13T15:32:29.287Z,12.10
2023-02-13T15:34:34.912Z,11.80
2023-02-13T15:36:40.508Z,11.90
2023-02-13T15:38:42.087Z,11.40
2023-02-13T15:40:44.492Z,11.00
2023-02-13T15:42:46.665Z,10.70
2023-02-13T15:44:49.936Z,10.60
2023-02-13T15:46:53.613Z,10.70
2023-02-13T15:48:56.462Z,10.50
2023-02-13T15:50:58.701Z,10.10
2023-02-13T15:53:02.800Z,9.80
2023-02-13T15:55:04.548Z,9.70
2023-02-13T15:57:06.989Z,9.60
2023-02-13T15:59:09.405Z,9.50
2023-02-13T16:01:11.140Z,9.30
2023-02-13T16:03:17.435Z,9.20
2023-02-13T16:05:29.444Z,9.20
2023-02-13T16:08:06.128Z,9.00
2023-02-13T16:10:18.051Z,8.90
2023-02-13T16:12:19.742Z,8.50
2023-02-13T16:14:24.167Z,8.50
2023-02-13T16:16:27.110Z,8.30
2023-02-13T16:18:28.908Z,8.10
2023-02-13T16:20:31.813Z,8.00
2023-02-13T16:22:42.772Z,7.90
2023-02-13T16:24:48.122Z,7.70
2023-02-13T16:26:50.263Z,7.60
2023-02-13T16:28:52.045Z,7.40
2023-02-13T16:30:57.600Z,7.40
2023-02-13T16:33:14.761Z,7.30
2023-02-13T16:35:29.840Z,7.10
2023-02-13T16:37:32.873Z,6.90
2023-02-13T16:39:34.631Z,6.90
2023-02-13T16:41:36.481Z,6.80
2023-02-13T16:43:38.184Z,6.70
2023-02-13T16:45:40.021Z,6.70
2023-02-13T16:47:41.685Z,6.60
2023-02-13T16:49:49.210Z,6.50
2023-02-13T16:51:54.109Z,6.50
2023-02-13T16:54:04.917Z,6.30
2023-02-13T16:56:07.546Z,6.30
2023-02-13T16:58:13.523Z,6.20
2023-02-13T17:00:18.849Z,6.10
2023-02-13T17:02:20.689Z,6.00
2023-02-13T17:04:23.994Z,5.90
2023-02-13T17:06:25.666Z,6.00
2023-02-13T17:08:27.629Z,5.80
2023-02-13T17:10:39.134Z,5.80
2023-02-13T17:12:40.759Z,5.80
2023-02-13T17:14:42.975Z,5.70
2023-02-13T17:16:44.589Z,5.50
2023-02-13T17:18:46.235Z,5.50
2023-02-13T17:20:49.533Z,5.50
2023-02-13T17:22:52.346Z,5.40
2023-02-13T17:24:54.012Z,5.20
2023-02-13T17:26:55.669Z,5.10
2023-02-13T17:28:57.355Z,5.10
2023-02-13T17:30:59.823Z,5.00
2023-02-13T17:33:07.100Z,5.00
2023-02-13T17:35:10.202Z,4.90
2023-02-13T17:37:22.865Z,4.90
2023-02-13T17:39:24.493Z,4.80
2023-02-13T17:41:26.157Z,4.80
2023-02-13T17:43:29.004Z,4.60
2023-02-13T17:45:32.833Z,4.50
2023-02-13T17:47:34.590Z,4.40
2023-02-13T17:49:36.184Z,4.30
2023-02-13T17:51:39.463Z,4.20
2023-02-13T17:53:41.305Z,4.30
2023-02-13T17:55:42.940Z,4.20
2023-02-13T17:57:44.741Z,4.10
2023-02-13T17:59:46.547Z,4.10
2023-02-13T18:01:49.274Z,4.10
2023-02-13T18:03:50.942Z,4.00
2023-02-13T18:05:52.609Z,3.90
2023-02-13T18:07:54.531Z,3.80
2023-02-13T18:09:56.242Z,3.80
2023-02-13T18:12:05.339Z,3.80
2023-02-13T18:14:07.445Z,3.80
2023-02-13T18:16:09.393Z,3.80
2023-02-13T18:18:11.939Z,3.70
2023-02-13T18:20:15.077Z,3.60
2023-02-13T18:22:16.762Z,3.60
2023-02-13T18:24:18.524Z,3.60
2023-02-13T18:26:20.290Z,3.60
2023-02-13T18:28:21.925Z,3.70
2023-02-13T18:30:23.838Z,3.60
2023-02-13T18:32:25.481Z,3.50
2023-02-13T18:34:27.161Z,3.50
2023-02-13T18:36:28.751Z,3.50
2023-02-13T18:38:30.416Z,3.40
2023-02-13T18:40:32.132Z,3.40
2023-02-13T18:42:33.825Z,3.30
2023-02-13T18:44:35.484Z,3.30
2023-02-13T18:46:37.149Z,3.30
2023-02-13T18:48:38.759Z,3.20
2023-02-13T18:50:41.391Z,3.20
2023-02-13T18:52:43.280Z,3.10
2023-02-13T18:54:45.775Z,3.10
2023-02-13T18:56:47.906Z,3.00
2023-02-13T18:58:49.814Z,3.00
2023-02-13T19:00:51.582Z,3.00
2023-02-13T19:02:53.400Z,2.90
2023-02-13T19:04:55.042Z,3.00
2023-02-13T19:06:56.682Z,3.00
2023-02-13T19:08:58.847Z,2.90
2023-02-13T19:11:00.569Z,2.90
2023-02-13T19:13:02.226Z,2.80
2023-02-13T19:15:04.338Z,2.70
2023-02-13T19:17:08.134Z,2.70
2023-02-13T19:19:09.991Z,2.60
2023-02-13T19:21:12.048Z,2.60
2023-02-13T19:23:13.685Z,2.50
2023-02-13T19:25:15.358Z,2.50
2023-02-13T19:27:17.663Z,2.50
2023-02-13T19:29:19.344Z,2.50
2023-02-13T19:31:25.444Z,2.60
2023-02-13T19:33:27.308Z,2.60
2023-02-13T19:35:28.928Z,2.50
2023-02-13T19:37:33.180Z,2.60
2023-02-13T19:39:43.990Z,2.60
2023-02-13T19:41:45.625Z,2.50
2023-02-13T19:43:51.253Z,2.50
2023-02-13T19:45:52.883Z,2.40
2023-02-13T19:47:55.179Z,2.30
2023-02-13T19:49:56.809Z,2.20
2023-02-13T19:51:58.592Z,2.20
2023-02-13T19:54:01.707Z,2.20
2023-02-13T19:56:04.227Z,2.20
2023-02-13T19:58:06.038Z,2.10
2023-02-13T20:00:09.428Z,2.10
2023-02-13T20:02:13.749Z,2.10
2023-02-13T20:04:15.438Z,2.00
2023-02-13T20:06:25.089Z,2.00
2023-02-13T20:08:26.722Z,1.90
2023-02-13T20:10:28.502Z,1.90
2023-02-13T20:12:30.335Z,1.80
2023-02-13T20:14:32.169Z,1.80
2023-02-13T20:16:35.515Z,1.80
2023-02-13T20:18:37.493Z,1.70
2023-02-13T20:20:39.637Z,1.70
2023-02-13T20:22:41.304Z,1.70
2023-02-13T20:24:43.168Z,1.70
2023-02-13T20:26:44.831Z,1.60
2023-02-13T20:28:47.150Z,1.60
2023-02-13T20:30:48.952Z,1.60
2023-02-13T20:32:50.705Z,1.60
2023-02-13T20:34:59.396Z,1.60
2023-02-13T20:37:01.474Z,1.60
2023-02-13T20:39:04.390Z,1.60
2023-02-13T20:41:08.888Z,1.50
2023-02-13T20:43:10.521Z,1.50
2023-02-13T20:45:12.217Z,1.40
2023-02-13T20:47:13.917Z,1.40
2023-02-13T20:49:20.231Z,1.40
2023-02-13T20:51:21.958Z,1.40
2023-02-13T20:53:23.609Z,1.40
2023-02-13T20:55:25.291Z,1.50
2023-02-13T20:57:27.496Z,1.40
2023-02-13T20:59:29.121Z,1.60
2023-02-13T21:01:32.680Z,1.50
2023-02-13T21:03:34.345Z,1.40
2023-02-13T21:05:36.312Z,1.40
2023-02-13T21:07:38.145Z,1.40
2023-02-13T21:09:39.837Z,1.30
2023-02-13T21:11:42.581Z,1.20
2023-02-13T21:13:44.340Z,1.20
2023-02-13T21:15:48.988Z,1.20
2023-02-13T21:17:50.650Z,1.20
2023-02-13T21:19:52.360Z,1.10
2023-02-13T21:21:54.063Z,1.00
2023-02-13T21:23:56.370Z,1.10
2023-02-13T21:26:01.594Z,1.10
2023-02-13T21:28:03.244Z,1.20
2023-02-13T21:30:05.222Z,1.20
2023-02-13T21:32:07.039Z,1.20
2023-02-13T21:34:10.986Z,1.30
2023-02-13T21:36:12.876Z,1.20
2023-02-13T21:38:14.560Z,1.10
2023-02-13T21:40:17.108Z,1.10
2023-02-13T21:42:18.720Z,1.10
2023-02-13T21:44:20.481Z,1.20
2023-02-13T21:46:23.857Z,1.10
2023-02-13T21:48:25.747Z,1.00
2023-02-13T21:50:27.430Z,1.00
2023-02-13T21:52:29.116Z,1.00
2023-02-13T21:54:30.703Z,1.10
2023-02-13T21:56:33.936Z,1.00
2023-02-13T21:58:36.378Z,0.90
2023-02-13T22:00:38.421Z,0.90
2023-02-13T22:02:40.372Z,0.90
2023-02-13T22:04:42.354Z,0.80
2023-02-13T22:06:46.874Z,0.80
2023-02-13T22:08:48.559Z,0.80
2023-02-13T22:10:57.349Z,0.80
2023-02-13T22:12:59.122Z,0.80
2023-02-13T22:15:00.803Z,0.80
2023-02-13T22:17:02.555Z,0.70
2023-02-13T22:19:05.010Z,0.70
2023-02-13T22:21:11.275Z,0.60
2023-02-13T22:23:12.918Z,0.50
2023-02-13T22:25:14.884Z,0.60
2023-02-13T22:27:16.521Z,0.60
2023-02-13T22:29:18.676Z,0.50
2023-02-13T22:31:22.869Z,0.50
2023-02-13T22:33:26.130Z,0.50
2023-02-13T22:35:27.800Z,0.50
2023-02-13T22:37:29.556Z,0.50
2023-02-13T22:39:31.261Z,0.50
2023-02-13T22:41:33.027Z,0.40
2023-02-13T22:43:35.057Z,0.50
2023-02-13T22:45:39.069Z,0.40
2023-02-13T22:47:40.675Z,0.40
2023-02-13T22:49:42.280Z,0.40
2023-02-13T22:51:43.991Z,0.50
2023-02-13T22:53:45.942Z,0.40
2023-02-13T22:55:47.664Z,0.40
2023-02-13T22:57:54.055Z,0.40
2023-02-13T22:59:55.810Z,0.40
2023-02-13T23:01:57.502Z,0.40
2023-02-13T23:03:59.239Z,0.50
2023-02-13T23:06:02.995Z,0.40
2023-02-13T23:08:04.718Z,0.30
2023-02-13T23:10:06.979Z,0.30
2023-02-13T23:12:27.506Z,0.20
2023-02-13T23:14:29.188Z,0.20
2023-02-13T23:16:51.310Z,0.20
2023-02-13T23:18:54.360Z,0.10
2023-02-13T23:20:56.083Z,0.10
2023-02-13T23:22:57.806Z,0.10
2023-02-13T23:24:59.486Z,0.10
2023-02-13T23:27:01.151Z,0.20
2023-02-13T23:29:02.798Z,0.20
2023-02-13T23:31:05.185Z,0.10
2023-02-13T23:33:07.023Z,0.10
2023-02-13T23:35:09.595Z,0.10
2023-02-13T23:37:11.417Z,0.00
2023-02-13T23:39:13.102Z,0.00
2023-02-13T23:41:14.695Z,0.00
2023-02-13T23:43:16.368Z,0.00
2023-02-13T23:45:18.046Z,0.00
2023-02-13T23:47:19.660Z,0.00
2023-02-13T23:49:22.166Z,0.00
2023-02-13T23:51:25.561Z,0.00
2023-02-13T23:53:27.369Z,0.00
2023-02-13T23:55:29.093Z,0.10
2023-02-13T23:57:30.710Z,0.00
2023-02-13T23:59:33.530Z,0.00
